Nearby METAR Reports

 

KDWH - Houston/Dw Hooks, Texas, USA
Distance from station: WNW 3mi, 6km
Updated: 01/31/2023 4:53pm
Mist, Overcast
Mist, Overcast
 Wind from N
Wind: N 9 mph , 15 km/h, Gust: 21 mph , 33 km/h
Temperature: 37°F , 3°C
Wind Chill: 30°F , -1°C
Dew Point: 34°F , 1°C
Humidity: 87%
Barometer: 30.25 inHg , 1024.4 hPa
Summary: Mist
Clouds: Overcast
Visibility: 9 miles , 14 km
Cloud details: Overcast 800 ft
2023/01/31 22:53 KDWH 312253Z 35008G18KT 9SM BR OVC008 03/01 A3025 RMK AO2 SLP244 T00280011
KIAH - Houston/Intnl, Texas, USA
Distance from station: ESE 9mi, 14km
Updated: 01/31/2023 4:53pm
Mist, Overcast
Mist, Overcast
 Wind from N
Wind: N 16 mph , 26 km/h
Temperature: 37°F , 3°C
Wind Chill: 28°F , -2°C
Dew Point: 37°F , 3°C
Humidity: 100%
Barometer: 30.24 inHg , 1024 hPa
Summary: Mist
Clouds: Overcast
Visibility: 6 miles , 10 km
Cloud details: Overcast 700 ft
2023/01/31 22:53 KIAH 312253Z 35014KT 6SM BR OVC007 03/03 A3024 RMK AO2 SLP240 T00330028
 
KCXO - Conroe, Texas, USA
Distance from station: NNE 21mi, 34km
Updated: 01/31/2023 4:53pm
Mist, Overcast
Mist, Overcast
 Wind from NNW
Wind: NNW 15 mph , 24 km/h, Gust: 22 mph , 35 km/h
Temperature: 36°F , 2°C
Wind Chill: 27°F , -3°C
Dew Point: 34°F , 1°C
Humidity: 93%
Barometer: 30.27 inHg , 1025.1 hPa
Summary: Mist
Clouds: Overcast
Visibility: 2 miles , 3 km
Cloud details: Mostly cloudy 600 ft
Overcast 1000 ft
2023/01/31 22:53 KCXO 312253Z 33013G19KT 2SM BR BKN006 OVC010 02/01 A3027 RMK AO2 PRESRR SLP251 T00170011
KMCJ - Houston/Univ, Texas, USA
Distance from station: SSE 24mi, 39km
Updated: 01/31/2023 5:15pm
Overcast
Overcast
 Wind from NNW
Wind: NNW 21 mph , 33 km/h, Gust: 26 mph , 43 km/h
Temperature: 37°F , 3°C
Wind Chill: 26°F , -3°C
Dew Point: 37°F , 3°C
Humidity: 100%
Barometer: 30.18 inHg , 1022 hPa
Clouds: Overcast
Visibility: 7 miles , 11 km
Cloud details: Overcast 700 ft
2023/01/31 23:15 KMCJ 312315Z AUTO 33018G23KT 7SM OVC007 03/03 A3018 RMK A01
 
KTME - Houston Exec, Texas, USA
Distance from station: SW 30mi, 48km
Updated: 01/31/2023 5:15pm
Overcast
Overcast
 Wind from N
Wind: N 17 mph , 28 km/h
Temperature: 36°F , 2°C
Wind Chill: 26°F , -3°C
Dew Point: 36°F , 2°C
Humidity: 100%
Barometer: 30.27 inHg , 1025.1 hPa
Clouds: Overcast
Visibility: 8 miles , 13 km
Cloud details: Overcast 600 ft
2023/01/31 23:15 KTME 312315Z AUTO 36015KT 8SM OVC006 02/02 A3027 RMK AO2
KHOU - Houston/Hobby, Texas, USA
Distance from station: SSE 32mi, 51km
Updated: 01/31/2023 4:53pm
Mist, Overcast
Mist, Overcast
 Wind from N
Wind: N 16 mph , 26 km/h
Temperature: 41°F , 5°C
Wind Chill: 33°F , 1°C
Dew Point: 37°F , 3°C
Humidity: 87%
Barometer: 30.21 inHg , 1023 hPa
Summary: Mist
Clouds: Overcast
Visibility: 2 miles , 3 km
Cloud details: Overcast 800 ft
2023/01/31 22:53 KHOU 312253Z 35014KT 2SM BR OVC008 05/03 A3021 RMK AO2 SLP235 T00500033
 
KSGR - Houston/Sugar La, Texas, USA
Distance from station: SSW 32mi, 51km
Updated: 01/31/2023 4:53pm
Overcast
Overcast
 Wind from N
Wind: N 16 mph , 26 km/h, Gust: 25 mph , 41 km/h
Temperature: 37°F , 3°C
Wind Chill: 28°F , -2°C
Dew Point: 36°F , 2°C
Humidity: 93%
Barometer: 30.23 inHg , 1023.7 hPa
Clouds: Overcast
Visibility: 9 miles , 14 km
Cloud details: Overcast 500 ft
2023/01/31 22:53 KSGR 312253Z 36014G22KT 9SM OVC005 03/02 A3023 RMK AO2 RAB33E42 SLP238 P0000 T00330017
K6R3 - Cleveland Muni, Texas, USA
Distance from station: NE 36mi, 58km
Updated: 12/28/2022 1:55am
NOT Current

 
Barometer: 30.10 inHg , 1019.3 hPa
2022/12/28 07:55 K6R3 280755Z AUTO A3010 RMK AO2 PWINO TSNO
 
KAXH - Houston/Southwst, Texas, USA
Distance from station: S 37mi, 60km
Updated: 01/31/2023 5:15pm
Overcast
Overcast
 Wind from NNW
Wind: NNW 12 mph , 19 km/h, Gust: 17 mph , 28 km/h
Temperature: 41°F , 5°C
Wind Chill: 34°F , 1°C
Dew Point: 39°F , 4°C
Humidity: 93%
Barometer: 30.24 inHg , 1024 hPa
Clouds: Overcast
Visibility: 7 miles , 11 km
Cloud details: Overcast 600 ft
2023/01/31 23:15 KAXH 312315Z AUTO 34010G15KT 7SM OVC006 05/04 A3024 RMK AO2 T00470040
KEFD - Houston/Ellingto, Texas, USA
Distance from station: SSE 37mi, 60km
Updated: 01/31/2023 5:32pm
Mist, Overcast
Mist, Overcast
 Wind from NW
Wind: NW 18 mph , 30 km/h
Temperature: 43°F , 6°C
Wind Chill: 35°F , 2°C
Dew Point: 41°F , 5°C
Humidity: 93%
Barometer: 30.19 inHg , 1022.4 hPa
Summary: Mist
Clouds: Overcast
Visibility: 1 1/2 miles , 2.4 km
Cloud details: Overcast 500 ft
2023/01/31 23:32 KEFD 312332Z 31016KT 1 1/2SM BR OVC005 06/05 A3019
 
KLVJ - Houston, Texas, USA
Distance from station: SSE 40mi, 64km
Updated: 01/31/2023 4:53pm
Mist, Overcast
Mist, Overcast
 Wind from N
Wind: N 13 mph , 20 km/h
Temperature: 43°F , 6°C
Wind Chill: 36°F , 2°C
Dew Point: 39°F , 4°C
Humidity: 87%
Barometer: 30.22 inHg , 1023.4 hPa
Summary: Mist
Clouds: Overcast
Visibility: 5 miles , 8 km
Cloud details: Overcast 700 ft
2023/01/31 22:53 KLVJ 312253Z AUTO 35011KT 5SM BR OVC007 06/04 A3022 RMK AO2 SLP231 T00610039
KUTS - Huntsville, Texas, USA
Distance from station: N 48mi, 78km
Updated: 01/31/2023 5:12pm
Light rain, Mist, Overcast
Light rain, Mist, Overcast
 Wind from N
Wind: N 8 mph , 13 km/h, Gust: 21 mph , 33 km/h
Temperature: 36°F , 2°C
Wind Chill: 30°F , -1°C
Dew Point: 32°F , 0°C
Humidity: 87%
Barometer: 30.27 inHg , 1025.1 hPa
Summary: Light rain, Mist
Clouds: Overcast
Visibility: 3 miles , 5 km
Cloud details: Overcast 400 ft
2023/01/31 23:12 KUTS 312312Z AUTO 36007G18KT 3SM -RA BR OVC004 02/00 A3027 RMK AO2 P0000 T00170000